Time;durP1;ratioP1;P1;durP2;ratioP2;P2;SDS_P1;SDS_P2;PMS_P1;PMS_P2;Temp;Humidity;BMP_temperature;BMP_pressure;BME280_temperature;BME280_humidity;BME280_pressure;Samples;Min_cycle;Max_cycle;Signal;HPM_P1;HPM_P2
2023/03/18 00:00:39;;;;;;;8.88;6.72;;;12.40;99.90;;;;;;5156615;27;20054;-73
2023/03/18 00:03:05;;;;;;;10.60;6.65;;;12.40;99.90;;;;;;5156242;27;20051;-73
2023/03/18 00:05:33;;;;;;;9.77;7.07;;;12.40;99.90;;;;;;5155888;27;20050;-74
2023/03/18 00:08:00;;;;;;;11.38;6.78;;;12.40;99.90;;;;;;5156464;27;20047;-74
2023/03/18 00:10:26;;;;;;;10.40;6.50;;;12.20;99.90;;;;;;5156000;27;20049;-74
2023/03/18 00:12:55;;;;;;;10.32;7.28;;;12.40;99.90;;;;;;5156621;27;20046;-74
2023/03/18 00:15:21;;;;;;;7.15;5.85;;;12.40;99.90;;;;;;5155890;27;20046;-72
2023/03/18 00:17:47;;;;;;;10.02;7.00;;;12.40;99.90;;;;;;5155891;27;20115;-73
2023/03/18 00:20:17;;;;;;;6.70;5.97;;;12.40;99.90;;;;;;5155881;27;20484;-73
2023/03/18 00:22:44;;;;;;;8.23;6.15;;;12.40;99.90;;;;;;5156035;27;20054;-74
2023/03/18 00:25:14;;;;;;;10.18;7.10;;;12.40;99.90;;;;;;5156324;27;20066;-73
2023/03/18 00:27:39;;;;;;;9.10;7.25;;;12.50;99.90;;;;;;5155862;27;20133;-74
2023/03/18 00:30:06;;;;;;;8.07;6.95;;;12.50;99.90;;;;;;5155778;27;20546;-74
2023/03/18 00:32:33;;;;;;;12.00;7.13;;;12.50;99.90;;;;;;5155840;27;20045;-74
2023/03/18 00:35:00;;;;;;;11.35;7.15;;;12.50;99.90;;;;;;5155787;27;20050;-74
2023/03/18 00:37:32;;;;;;;7.82;6.82;;;12.50;99.90;;;;;;5155688;27;20078;-73
2023/03/18 00:40:07;;;;;;;9.88;6.63;;;12.10;99.90;;;;;;5156146;27;20049;-74
2023/03/18 00:42:46;;;;;;;8.45;7.40;;;12.50;99.90;;;;;;5136915;27;20050;-74
2023/03/18 00:45:14;;;;;;;10.80;7.35;;;12.50;99.90;;;;;;5137233;27;20486;-74
2023/03/18 00:47:42;;;;;;;10.45;6.95;;;12.50;99.90;;;;;;5155348;27;20074;-73
2023/03/18 00:50:09;;;;;;;9.88;6.75;;;12.50;99.90;;;;;;5136940;27;20064;-74
2023/03/18 00:52:36;;;;;;;8.68;7.13;;;12.50;99.90;;;;;;5155897;27;20038;-74
2023/03/18 00:55:03;;;;;;;10.13;7.80;;;12.50;99.90;;;;;;5155448;27;20088;-73
2023/03/18 00:57:29;;;;;;;10.23;7.10;;;12.50;99.90;;;;;;5155258;27;20050;-74
2023/03/18 00:59:55;;;;;;;8.38;7.30;;;12.50;99.90;;;;;;5136708;27;20049;-74
2023/03/18 01:02:22;;;;;;;10.65;7.82;;;12.40;99.90;;;;;;5155586;27;20034;-73
2023/03/18 01:04:49;;;;;;;11.13;8.70;;;12.40;99.90;;;;;;5155082;27;20431;-73
2023/03/18 01:07:14;;;;;;;8.85;7.75;;;12.40;99.90;;;;;;5154761;27;20418;-73
2023/03/18 01:09:40;;;;;;;12.73;9.63;;;12.30;99.90;;;;;;5155486;27;20061;-73
2023/03/18 01:12:07;;;;;;;12.50;8.82;;;12.30;99.90;;;;;;5154995;27;20051;-74
2023/03/18 01:14:35;;;;;;;12.80;9.27;;;12.20;99.90;;;;;;5155021;27;20055;-73
2023/03/18 01:17:01;;;;;;;13.23;9.73;;;12.20;99.90;;;;;;5154861;27;20525;-73
2023/03/18 01:19:28;;;;;;;13.90;10.10;;;12.10;99.90;;;;;;5155080;27;20046;-74
2023/03/18 01:21:54;;;;;;;14.50;10.18;;;12.10;99.90;;;;;;5136959;27;20095;-73
2023/03/18 01:24:21;;;;;;;14.48;10.80;;;12.00;99.90;;;;;;5154850;27;20047;-73
2023/03/18 01:26:47;;;;;;;13.85;10.68;;;12.00;99.90;;;;;;5154593;27;20046;-73
2023/03/18 01:29:13;;;;;;;13.02;11.27;;;11.90;99.90;;;;;;5154781;27;20102;-74
2023/03/18 01:31:39;;;;;;;13.65;11.00;;;11.90;99.90;;;;;;5155145;27;20133;-73
2023/03/18 01:34:06;;;;;;;14.50;10.80;;;11.80;99.90;;;;;;5137107;27;20480;-74
2023/03/18 01:36:32;;;;;;;13.07;10.57;;;11.80;99.90;;;;;;5136064;27;20504;-73
2023/03/18 01:38:58;;;;;;;14.40;11.10;;;11.80;99.90;;;;;;5154441;27;20409;-73
2023/03/18 01:41:25;;;;;;;13.93;11.15;;;11.80;99.90;;;;;;5154500;27;20043;-74
2023/03/18 01:43:53;;;;;;;18.10;12.75;;;11.70;99.90;;;;;;5154797;27;20493;-74
2023/03/18 01:46:38;;;;;;;19.10;13.77;;;11.70;99.90;;;;;;5154338;27;20043;-74
2023/03/18 01:49:33;;;;;;;16.38;13.32;;;11.70;99.90;;;;;;5154417;27;20039;-73
2023/03/18 01:52:27;;;;;;;15.75;13.20;;;11.70;99.90;;;;;;5140749;27;20151;-74
2023/03/18 01:55:16;;;;;;;16.73;14.07;;;11.70;99.90;;;;;;5148868;27;20133;-74
2023/03/18 01:57:44;;;;;;;18.13;13.07;;;11.60;99.90;;;;;;5154216;27;20072;-74
2023/03/18 02:00:11;;;;;;;17.75;13.98;;;11.60;99.90;;;;;;5154300;27;20103;-74
2023/03/18 02:02:42;;;;;;;21.80;13.60;;;11.60;99.90;;;;;;5154096;27;20082;-75
2023/03/18 02:05:10;;;;;;;17.17;14.75;;;11.60;99.90;;;;;;5154200;27;20054;-74
2023/03/18 02:07:39;;;;;;;18.02;14.65;;;11.60;99.90;;;;;;5154104;27;20039;-74
2023/03/18 02:10:33;;;;;;;17.25;14.48;;;11.50;99.90;;;;;;5154647;27;20047;-74
2023/03/18 02:13:05;;;;;;;18.30;15.30;;;11.50;99.90;;;;;;5148530;27;20586;-74
2023/03/18 02:15:33;;;;;;;21.23;15.20;;;11.50;99.90;;;;;;5136355;27;20086;-74
2023/03/18 02:18:26;;;;;;;21.40;16.60;;;11.50;99.90;;;;;;5154714;27;20050;-74
2023/03/18 02:21:15;;;;;;;20.55;14.07;;;11.50;99.90;;;;;;5154141;27;20038;-74
2023/03/18 02:23:47;;;;;;;17.55;14.88;;;11.50;99.90;;;;;;5154014;27;20046;-74
2023/03/18 02:26:29;;;;;;;20.83;16.25;;;11.40;99.90;;;;;;5154408;27;20104;-74
2023/03/18 02:29:00;;;;;;;26.85;17.17;;;11.40;99.90;;;;;;5154110;27;20043;-74
2023/03/18 02:31:26;;;;;;;25.98;16.83;;;11.40;99.90;;;;;;5136342;27;20047;-74
2023/03/18 02:33:52;;;;;;;20.55;16.88;;;11.30;99.90;;;;;;5154016;27;20378;-74
2023/03/18 02:36:24;;;;;;;21.98;17.30;;;11.40;99.90;;;;;;5154116;27;20050;-74
2023/03/18 02:38:50;;;;;;;18.98;16.90;;;11.30;99.90;;;;;;5154601;27;20051;-74
2023/03/18 02:41:21;;;;;;;24.42;18.48;;;11.30;99.90;;;;;;5154036;27;20183;-74
2023/03/18 02:43:48;;;;;;;21.50;17.70;;;11.30;99.90;;;;;;5154374;27;20039;-74
2023/03/18 02:46:54;;;;;;;22.60;18.73;;;11.30;99.90;;;;;;5135363;27;20039;-75
2023/03/18 02:49:21;;;;;;;26.13;19.25;;;11.20;99.90;;;;;;5154480;27;20050;-74
2023/03/18 02:51:48;;;;;;;28.15;19.33;;;11.20;99.90;;;;;;5153755;27;20047;-74
2023/03/18 02:54:21;;;;;;;22.33;18.45;;;11.10;99.90;;;;;;5154155;27;20054;-74
2023/03/18 02:56:47;;;;;;;24.23;19.65;;;11.10;99.90;;;;;;5153609;27;20046;-74
2023/03/18 02:59:13;;;;;;;25.77;18.77;;;11.10;99.90;;;;;;5153393;27;20043;-74
2023/03/18 03:01:41;;;;;;;25.65;19.92;;;11.10;99.90;;;;;;5153673;27;20043;-74
2023/03/18 03:04:07;;;;;;;24.90;18.92;;;11.10;99.90;;;;;;5136090;27;20139;-74
2023/03/18 03:06:34;;;;;;;25.70;17.85;;;11.10;99.90;;;;;;5157748;27;20046;-73
2023/03/18 03:09:01;;;;;;;20.95;17.80;;;11.10;99.90;;;;;;5157508;27;20085;-74
2023/03/18 03:11:28;;;;;;;26.70;18.95;;;11.00;99.90;;;;;;5157482;27;20510;-74
2023/03/18 03:13:54;;;;;;;23.08;18.83;;;11.00;99.90;;;;;;5157340;27;20506;-74
2023/03/18 03:16:19;;;;;;;21.55;17.88;;;11.00;99.90;;;;;;5157398;27;20043;-74
2023/03/18 03:18:46;;;;;;;24.35;19.60;;;11.00;99.90;;;;;;5157242;27;20047;-74
2023/03/18 03:21:13;;;;;;;30.13;20.55;;;11.00;99.90;;;;;;5157627;27;20401;-74
2023/03/18 03:23:40;;;;;;;25.65;20.23;;;11.00;99.90;;;;;;5156871;27;20547;-74
2023/03/18 03:26:06;;;;;;;27.15;19.55;;;10.90;99.90;;;;;;5157049;27;20052;-74
2023/03/18 03:28:32;;;;;;;23.55;19.05;;;11.00;99.90;;;;;;5157026;27;20046;-74
2023/03/18 03:30:59;;;;;;;24.08;17.80;;;10.90;99.90;;;;;;5157207;27;20046;-74
2023/03/18 03:33:26;;;;;;;29.75;21.13;;;11.00;99.90;;;;;;5156926;27;20043;-74
2023/03/18 03:35:52;;;;;;;23.77;20.40;;;10.90;99.90;;;;;;5157388;27;20118;-74
2023/03/18 03:38:19;;;;;;;26.77;20.40;;;10.90;99.90;;;;;;5157262;27;20046;-74
2023/03/18 03:40:46;;;;;;;25.17;19.67;;;10.90;99.90;;;;;;5156976;27;20127;-74
2023/03/18 03:43:13;;;;;;;24.10;19.67;;;10.90;99.90;;;;;;5156817;27;20072;-74
2023/03/18 03:45:40;;;;;;;28.20;20.25;;;10.90;99.90;;;;;;5156514;27;20542;-74
2023/03/18 03:48:07;;;;;;;27.00;19.85;;;10.90;99.90;;;;;;5138248;27;20498;-74
2023/03/18 03:50:34;;;;;;;22.98;18.73;;;10.90;99.90;;;;;;5156611;27;20042;-74
2023/03/18 03:53:01;;;;;;;23.40;20.20;;;10.90;99.90;;;;;;5156567;27;20057;-74
2023/03/18 03:55:28;;;;;;;29.40;19.85;;;10.80;99.90;;;;;;5156802;27;20054;-74
2023/03/18 03:57:53;;;;;;;25.70;18.63;;;10.90;99.90;;;;;;5156844;27;20046;-75
2023/03/18 04:00:21;;;;;;;24.73;19.80;;;10.80;99.90;;;;;;5156432;27;20187;-75
2023/03/18 04:02:49;;;;;;;25.02;18.75;;;10.80;99.90;;;;;;5156424;27;20075;-74
2023/03/18 04:05:17;;;;;;;25.23;17.83;;;10.70;99.90;;;;;;5156124;27;20090;-75
2023/03/18 04:07:44;;;;;;;22.42;17.70;;;10.70;99.90;;;;;;5156857;27;20055;-74
2023/03/18 04:10:13;;;;;;;24.58;18.73;;;10.60;99.90;;;;;;5137977;27;20407;-74
2023/03/18 04:12:39;;;;;;;25.63;18.50;;;10.60;99.90;;;;;;5156591;27;20042;-74
2023/03/18 04:15:06;;;;;;;23.25;17.30;;;10.60;99.90;;;;;;5156354;27;20488;-74
2023/03/18 04:17:33;;;;;;;23.73;18.65;;;10.60;99.90;;;;;;5155478;27;20092;-74
2023/03/18 04:19:59;;;;;;;26.75;19.75;;;10.50;99.90;;;;;;5156041;27;20046;-74
2023/03/18 04:22:25;;;;;;;26.73;19.55;;;10.50;99.90;;;;;;5156518;27;20043;-74
2023/03/18 04:24:51;;;;;;;25.92;19.50;;;10.50;99.90;;;;;;5155937;27;20049;-74
2023/03/18 04:27:17;;;;;;;22.33;17.90;;;10.40;99.90;;;;;;5155885;27;20129;-75
2023/03/18 04:29:43;;;;;;;22.80;19.15;;;10.40;99.90;;;;;;5155789;27;20046;-74
2023/03/18 04:32:10;;;;;;;27.27;18.98;;;10.40;99.90;;;;;;5137426;27;20061;-74
2023/03/18 04:34:35;;;;;;;21.80;17.52;;;10.40;99.90;;;;;;5137256;27;20050;-74
2023/03/18 04:37:02;;;;;;;24.20;18.52;;;10.40;99.90;;;;;;5155311;27;20035;-74
2023/03/18 04:39:28;;;;;;;25.38;18.95;;;10.30;99.90;;;;;;5137629;27;20049;-74
2023/03/18 04:41:55;;;;;;;28.38;18.30;;;10.30;99.90;;;;;;5120023;27;20053;-74
2023/03/18 04:44:23;;;;;;;27.92;18.85;;;10.20;99.90;;;;;;5155975;27;20082;-74
2023/03/18 04:46:49;;;;;;;23.60;19.27;;;10.20;99.90;;;;;;5155881;27;20054;-74
2023/03/18 04:49:14;;;;;;;25.90;18.52;;;10.20;99.90;;;;;;5137111;27;20166;-74
2023/03/18 04:51:40;;;;;;;23.10;19.25;;;10.20;99.90;;;;;;5155434;27;20145;-75
2023/03/18 04:54:06;;;;;;;25.05;20.15;;;10.10;99.90;;;;;;5155405;27;20068;-74
2023/03/18 04:56:32;;;;;;;28.40;20.13;;;10.10;99.90;;;;;;5155256;27;20332;-75
2023/03/18 04:58:58;;;;;;;23.85;21.30;;;10.10;99.90;;;;;;5155363;27;20391;-74
2023/03/18 05:01:23;;;;;;;28.67;21.27;;;10.10;99.90;;;;;;5155252;27;20035;-74
2023/03/18 05:03:49;;;;;;;25.23;22.45;;;10.10;99.90;;;;;;5155604;27;20062;-75
2023/03/18 05:06:21;;;;;;;26.98;21.15;;;10.10;99.90;;;;;;5154806;27;20054;-74
2023/03/18 05:08:47;;;;;;;27.67;22.17;;;10.00;99.90;;;;;;5155273;27;20043;-75
2023/03/18 05:11:13;;;;;;;30.90;22.73;;;10.00;99.90;;;;;;5154872;27;20049;-75
2023/03/18 05:13:39;;;;;;;30.23;23.58;;;10.00;99.90;;;;;;5155157;27;20122;-74
2023/03/18 05:16:06;;;;;;;31.20;22.60;;;10.00;99.90;;;;;;5136384;27;20078;-75
2023/03/18 05:18:32;;;;;;;29.95;21.33;;;10.00;99.90;;;;;;5154645;27;20456;-74
2023/03/18 05:20:58;;;;;;;28.42;21.58;;;10.00;99.90;;;;;;5154650;27;20072;-74
2023/03/18 05:23:24;;;;;;;24.88;21.25;;;10.00;99.90;;;;;;5155092;27;20123;-74
2023/03/18 05:25:50;;;;;;;29.77;22.27;;;10.00;99.90;;;;;;5154738;27;20443;-74
2023/03/18 05:28:17;;;;;;;25.23;20.38;;;10.00;99.90;;;;;;5154723;27;20047;-75
2023/03/18 05:30:42;;;;;;;26.02;20.27;;;10.00;99.90;;;;;;5154840;27;20054;-75
2023/03/18 05:33:08;;;;;;;28.90;20.65;;;10.00;99.90;;;;;;5136418;27;20043;-74
2023/03/18 05:35:35;;;;;;;26.50;19.80;;;10.00;99.90;;;;;;5154930;27;20054;-74
2023/03/18 05:38:01;;;;;;;27.48;18.77;;;10.00;99.90;;;;;;5154516;27;20039;-73
2023/03/18 05:40:26;;;;;;;28.90;21.33;;;10.10;99.90;;;;;;5154831;27;20049;-74
2023/03/18 05:42:52;;;;;;;23.42;20.38;;;10.10;99.90;;;;;;5154910;27;20043;-75
2023/03/18 05:45:18;;;;;;;26.83;20.33;;;10.10;99.90;;;;;;5154649;27;20047;-74
2023/03/18 05:47:44;;;;;;;31.50;20.85;;;10.10;99.90;;;;;;5154203;27;20038;-74
2023/03/18 05:50:10;;;;;;;27.98;20.90;;;10.20;99.90;;;;;;5136270;27;20118;-74
2023/03/18 05:52:37;;;;;;;27.35;21.88;;;10.20;99.90;;;;;;5154525;27;20046;-74
2023/03/18 05:55:03;;;;;;;23.17;19.58;;;10.20;99.90;;;;;;5153701;27;20035;-74
2023/03/18 05:57:29;;;;;;;27.77;20.38;;;10.20;99.90;;;;;;5154361;27;20054;-75
2023/03/18 05:59:55;;;;;;;26.33;20.58;;;10.20;99.90;;;;;;5153905;27;20536;-74
2023/03/18 06:02:20;;;;;;;28.85;19.42;;;10.30;99.90;;;;;;5135660;27;20042;-75
2023/03/18 06:04:46;;;;;;;26.00;20.17;;;10.30;99.90;;;;;;5154161;27;20065;-74
2023/03/18 06:07:12;;;;;;;24.38;20.33;;;10.20;99.90;;;;;;5154184;27;20042;-74
2023/03/18 06:09:40;;;;;;;24.42;18.77;;;10.30;99.90;;;;;;5135417;27;20050;-74
2023/03/18 06:12:06;;;;;;;25.08;18.25;;;10.20;99.90;;;;;;5154219;27;20046;-75
2023/03/18 06:14:32;;;;;;;26.27;19.58;;;10.20;99.90;;;;;;5153719;27;20551;-74
2023/03/18 06:16:58;;;;;;;22.90;17.80;;;10.20;99.90;;;;;;5153469;27;20508;-75
2023/03/18 06:19:24;;;;;;;25.58;18.70;;;10.20;99.90;;;;;;5153826;27;20046;-74
2023/03/18 06:21:51;;;;;;;24.10;19.40;;;10.20;99.90;;;;;;5153688;27;20046;-74
2023/03/18 06:24:18;;;;;;;28.00;19.25;;;10.20;99.90;;;;;;5153717;27;20046;-74
2023/03/18 06:26:44;;;;;;;27.05;20.08;;;10.30;99.90;;;;;;5153202;27;20462;-74
2023/03/18 06:29:09;;;;;;;21.40;17.83;;;10.20;99.90;;;;;;5153709;27;20125;-74
2023/03/18 06:31:36;;;;;;;25.83;19.88;;;10.30;99.90;;;;;;5153560;27;20360;-75
2023/03/18 06:34:03;;;;;;;27.65;19.52;;;10.30;99.90;;;;;;5153841;27;20050;-75
2023/03/18 06:36:29;;;;;;;25.25;20.00;;;10.30;99.90;;;;;;5153435;27;20510;-74
2023/03/18 06:38:55;;;;;;;26.83;20.15;;;10.30;99.90;;;;;;5153963;27;20046;-74
2023/03/18 06:41:21;;;;;;;31.45;21.90;;;10.30;99.90;;;;;;5158067;27;20099;-74
2023/03/18 06:43:49;;;;;;;27.67;22.17;;;10.30;99.90;;;;;;5138944;27;20038;-74
2023/03/18 06:46:16;;;;;;;26.85;21.35;;;10.40;99.90;;;;;;5157606;27;20087;-75
2023/03/18 06:48:41;;;;;;;27.88;19.73;;;10.40;99.90;;;;;;5158079;27;20050;-74
2023/03/18 06:51:07;;;;;;;27.35;20.77;;;10.50;99.90;;;;;;5139304;27;20462;-74
2023/03/18 06:53:35;;;;;;;27.63;19.55;;;10.50;99.90;;;;;;5157924;27;20130;-76
2023/03/18 06:56:02;;;;;;;28.60;20.73;;;10.60;99.90;;;;;;5139154;27;20054;-75
2023/03/18 06:58:27;;;;;;;28.80;22.52;;;10.60;99.90;;;;;;5157841;27;20050;-75
2023/03/18 07:00:53;;;;;;;29.58;22.73;;;10.70;99.90;;;;;;5157868;27;20043;-77
2023/03/18 07:03:20;;;;;;;25.52;19.67;;;10.70;99.90;;;;;;5157315;27;20327;-75
2023/03/18 07:05:46;;;;;;;34.08;25.02;;;10.70;99.90;;;;;;5157529;27;20058;-76
2023/03/18 07:08:12;;;;;;;31.25;21.60;;;10.70;99.90;;;;;;5157175;27;20047;-77
2023/03/18 07:10:38;;;;;;;28.10;21.00;;;10.70;99.90;;;;;;5139092;27;20046;-76
2023/03/18 07:13:04;;;;;;;30.20;21.40;;;10.70;99.90;;;;;;5157315;27;20054;-77
2023/03/18 07:15:30;;;;;;;28.63;19.77;;;10.80;99.90;;;;;;5157251;27;20047;-76
2023/03/18 07:17:56;;;;;;;27.20;20.58;;;11.00;99.90;;;;;;5157163;27;20082;-76
2023/03/18 07:20:22;;;;;;;29.88;21.65;;;11.30;99.90;;;;;;5157312;27;20047;-76
2023/03/18 07:22:50;;;;;;;28.33;21.70;;;11.50;99.90;;;;;;5157157;27;20042;-76
2023/03/18 07:25:16;;;;;;;30.25;22.58;;;11.60;99.90;;;;;;5138916;27;20161;-75
2023/03/18 07:27:42;;;;;;;24.98;20.83;;;11.70;99.90;;;;;;5157206;27;20366;-76
2023/03/18 07:30:09;;;;;;;26.45;20.90;;;11.70;99.90;;;;;;5156841;27;20038;-76
2023/03/18 07:32:36;;;;;;;27.83;21.35;;;11.80;99.90;;;;;;5157246;27;20061;-76
2023/03/18 07:35:04;;;;;;;25.88;20.88;;;11.80;99.90;;;;;;5138870;27;20051;-77
2023/03/18 07:37:30;;;;;;;24.75;20.90;;;11.80;99.90;;;;;;5156866;27;20055;-76
2023/03/18 07:39:56;;;;;;;27.13;21.08;;;11.90;99.90;;;;;;5156680;27;20440;-75
2023/03/18 07:42:22;;;;;;;32.03;22.42;;;11.80;99.90;;;;;;5156631;27;20082;-75
2023/03/18 07:44:48;;;;;;;28.15;21.63;;;11.80;99.90;;;;;;5138745;27;20089;-77
2023/03/18 07:47:14;;;;;;;27.90;19.77;;;11.80;99.90;;;;;;5156671;27;20074;-74
2023/03/18 07:49:40;;;;;;;26.48;20.60;;;11.80;99.90;;;;;;5157135;27;20053;-74
2023/03/18 07:52:07;;;;;;;27.85;21.13;;;11.80;99.90;;;;;;5155184;27;20084;-75
2023/03/18 07:54:34;;;;;;;25.70;21.08;;;11.80;99.90;;;;;;5156489;27;20107;-75
2023/03/18 07:57:00;;;;;;;26.67;20.73;;;11.80;99.90;;;;;;5156228;27;20087;-75
2023/03/18 07:59:26;;;;;;;27.80;21.90;;;11.70;99.90;;;;;;5120798;27;20042;-76
2023/03/18 08:01:52;;;;;;;28.85;21.02;;;11.70;99.90;;;;;;5138123;27;20486;-76
2023/03/18 08:04:18;;;;;;;28.40;21.30;;;11.70;99.90;;;;;;5156724;27;20080;-75
2023/03/18 08:06:44;;;;;;;27.10;19.90;;;11.60;99.90;;;;;;5120159;27;20069;-75
2023/03/18 08:09:10;;;;;;;27.67;22.52;;;11.60;99.90;;;;;;5155935;27;20471;-74
2023/03/18 08:11:35;;;;;;;30.27;19.52;;;11.60;99.90;;;;;;5137973;27;20049;-74
2023/03/18 08:14:01;;;;;;;26.98;20.27;;;11.60;99.90;;;;;;5156536;27;20043;-75
2023/03/18 08:16:27;;;;;;;28.20;20.50;;;11.60;99.90;;;;;;5156110;27;20039;-75
2023/03/18 08:18:53;;;;;;;24.05;20.73;;;11.60;99.90;;;;;;5156076;27;20441;-76
2023/03/18 08:21:18;;;;;;;27.88;20.52;;;11.20;99.90;;;;;;5156114;27;20046;-75
2023/03/18 08:23:44;;;;;;;25.95;20.70;;;11.50;99.90;;;;;;5155883;27;20042;-75
2023/03/18 08:26:10;;;;;;;22.77;19.58;;;11.60;99.90;;;;;;5156142;27;20056;-75
2023/03/18 08:28:37;;;;;;;24.38;19.63;;;11.50;99.90;;;;;;5120405;27;20047;-76
2023/03/18 08:31:04;;;;;;;27.90;19.45;;;11.60;99.90;;;;;;5155709;27;20129;-76
2023/03/18 08:33:30;;;;;;;22.30;18.88;;;11.60;99.90;;;;;;5155690;27;20058;-76
2023/03/18 08:35:57;;;;;;;29.05;20.80;;;11.70;99.90;;;;;;5155586;27;20126;-78
2023/03/18 08:38:24;;;;;;;23.40;20.08;;;11.90;99.90;;;;;;5155509;27;20050;-76
2023/03/18 08:40:50;;;;;;;23.00;19.20;;;12.00;99.90;;;;;;5155940;27;20045;-75
2023/03/18 08:43:16;;;;;;;24.10;18.60;;;12.10;99.90;;;;;;5137116;27;20084;-74
2023/03/18 08:45:42;;;;;;;25.83;19.08;;;12.20;99.90;;;;;;5155406;27;20043;-75
2023/03/18 08:48:08;;;;;;;24.27;18.85;;;12.30;99.90;;;;;;5155444;27;20065;-76
2023/03/18 08:50:35;;;;;;;23.35;17.92;;;12.30;99.90;;;;;;5156111;27;20082;-76
2023/03/18 08:53:02;;;;;;;24.17;18.67;;;12.40;99.90;;;;;;5155809;27;20093;-75
2023/03/18 08:55:31;;;;;;;25.40;18.42;;;12.40;99.90;;;;;;5155633;27;20061;-76
2023/03/18 08:57:57;;;;;;;26.45;19.15;;;12.50;99.90;;;;;;5155524;27;20133;-77
2023/03/18 09:00:24;;;;;;;27.15;18.77;;;12.50;99.90;;;;;;5137646;27;20416;-77
2023/03/18 09:02:51;;;;;;;25.75;17.50;;;12.50;99.90;;;;;;5137345;27;20069;-76
2023/03/18 09:05:17;;;;;;;25.35;19.42;;;12.40;99.90;;;;;;5154763;27;20118;-79
2023/03/18 09:07:44;;;;;;;23.52;19.10;;;12.40;99.90;;;;;;5155080;27;20054;-76
2023/03/18 09:10:13;;;;;;;30.17;18.25;;;12.40;99.90;;;;;;5136746;27;20399;-76
2023/03/18 09:12:39;;;;;;;23.73;18.75;;;12.40;99.90;;;;;;5136450;27;20499;-76
2023/03/18 09:15:06;;;;;;;24.08;19.10;;;12.40;99.90;;;;;;5155267;27;20046;-77
2023/03/18 09:17:31;;;;;;;23.25;17.75;;;12.40;99.90;;;;;;5136615;27;20130;-77
2023/03/18 09:19:57;;;;;;;23.95;18.90;;;12.60;99.90;;;;;;5136576;27;20074;-68
2023/03/18 09:22:23;;;;;;;26.92;19.30;;;12.70;99.90;;;;;;5154777;27;20054;-70
2023/03/18 09:24:49;;;;;;;24.25;19.15;;;13.00;99.90;;;;;;5154660;27;20045;-69
2023/03/18 09:27:14;;;;;;;26.35;19.73;;;13.20;99.90;;;;;;5154538;27;20475;-76
2023/03/18 09:29:40;;;;;;;28.92;19.33;;;13.30;99.90;;;;;;5136573;27;20043;-76
2023/03/18 09:32:07;;;;;;;22.27;18.33;;;13.50;99.90;;;;;;5154991;27;20525;-75
2023/03/18 09:34:33;;;;;;;24.27;17.42;;;13.70;99.90;;;;;;5154763;27;20046;-78
2023/03/18 09:36:58;;;;;;;25.50;18.17;;;13.90;99.90;;;;;;5136548;27;20454;-76
2023/03/18 09:39:24;;;;;;;24.95;20.20;;;14.00;99.90;;;;;;5154697;27;20541;-76
2023/03/18 09:42:21;;;;;;;27.50;19.20;;;14.40;99.90;;;;;;5154744;27;20050;-75
2023/03/18 09:44:59;;;;;;;30.60;19.85;;;14.70;99.90;;;;;;5154831;27;20039;-78
2023/03/18 09:47:40;;;;;;;25.67;18.60;;;15.00;99.90;;;;;;5155021;27;20042;-77
2023/03/18 09:50:07;;;;;;;20.58;16.83;;;15.00;99.90;;;;;;5154275;27;20114;-78
2023/03/18 09:52:47;;;;;;;24.55;18.30;;;15.00;99.90;;;;;;5154668;27;20078;-78
2023/03/18 09:55:16;;;;;;;22.45;18.40;;;15.00;99.90;;;;;;5154224;27;20043;-78
2023/03/18 09:57:45;;;;;;;22.52;18.15;;;15.10;99.90;;;;;;5154135;27;20498;-77
2023/03/18 10:00:19;;;;;;;23.05;18.27;;;15.30;99.90;;;;;;5154717;27;20069;-77
2023/03/18 10:03:03;;;;;;;25.23;19.55;;;15.30;99.90;;;;;;5153861;27;20402;-75
2023/03/18 10:05:33;;;;;;;23.48;17.88;;;15.00;99.90;;;;;;5154056;27;20065;-77
2023/03/18 10:08:20;;;;;;;23.55;18.05;;;15.00;99.90;;;;;;5154112;27;20481;-76
2023/03/18 10:10:47;;;;;;;22.98;18.13;;;15.20;99.90;;;;;;5154317;27;20050;-77
2023/03/18 10:13:32;;;;;;;24.75;17.92;;;15.70;99.90;;;;;;5154061;27;20042;-78
2023/03/18 10:16:02;;;;;;;26.58;18.60;;;16.30;99.90;;;;;;5154825;27;20076;-77
2023/03/18 10:18:34;;;;;;;20.73;17.17;;;16.30;99.90;;;;;;5155721;27;20051;-76
2023/03/18 10:21:21;;;;;;;19.02;16.17;;;16.10;99.90;;;;;;5154864;27;20090;-76
2023/03/18 10:24:34;;;;;;;21.02;17.42;;;16.00;99.90;;;;;;5153769;27;20477;-76
2023/03/18 10:27:40;;;;;;;23.13;19.13;;;16.10;99.90;;;;;;5130045;27;20411;-77
2023/03/18 10:30:27;;;;;;;23.85;17.30;;;16.30;99.90;;;;;;5153864;27;20053;-78
2023/03/18 10:33:17;;;;;;;22.92;17.27;;;17.00;99.90;;;;;;5153822;27;20043;-76
2023/03/18 10:36:02;;;;;;;22.15;17.13;;;18.30;99.90;;;;;;5153732;27;20043;-77
2023/03/18 10:38:36;;;;;;;20.52;16.25;;;18.10;99.90;;;;;;5153870;27;20050;-76
2023/03/18 10:41:22;;;;;;;24.98;18.00;;;17.60;99.90;;;;;;5154209;27;20107;-76
2023/03/18 10:43:50;;;;;;;19.83;17.73;;;17.10;99.90;;;;;;5154288;27;20058;-77
2023/03/18 10:46:20;;;;;;;20.17;17.55;;;16.70;99.90;;;;;;5153605;27;20050;-77
2023/03/18 10:48:56;;;;;;;23.23;19.02;;;16.50;99.90;;;;;;5153587;27;20051;-77
2023/03/18 10:51:38;;;;;;;25.05;18.10;;;16.80;99.90;;;;;;5154169;27;20075;-76
2023/03/18 10:54:16;;;;;;;20.20;16.52;;;17.50;99.90;;;;;;5153589;27;20046;-76
2023/03/18 10:56:42;;;;;;;25.13;17.95;;;17.90;99.90;;;;;;5135378;27;20104;-78
2023/03/18 10:59:15;;;;;;;22.80;17.45;;;17.80;99.90;;;;;;5153570;27;20054;-77
2023/03/18 11:01:45;;;;;;;18.92;16.67;;;17.40;99.90;;;;;;5135303;27;20050;-77
2023/03/18 11:04:15;;;;;;;21.95;16.90;;;17.10;99.90;;;;;;5154143;27;20074;-76
2023/03/18 11:06:46;;;;;;;23.38;17.98;;;16.90;99.90;;;;;;5153588;27;20111;-77
2023/03/18 11:09:18;;;;;;;25.63;17.42;;;16.80;99.90;;;;;;5135467;27;20042;-77
2023/03/18 11:11:47;;;;;;;21.60;17.67;;;16.80;99.90;;;;;;5154177;27;20043;-76
2023/03/18 11:14:18;;;;;;;19.98;16.17;;;16.60;99.90;;;;;;5153430;27;20036;-76
2023/03/18 11:16:59;;;;;;;21.20;16.90;;;16.50;99.90;;;;;;5153457;27;20480;-77
2023/03/18 11:19:46;;;;;;;20.48;16.95;;;16.50;99.90;;;;;;5153426;27;20046;-71
2023/03/18 11:22:21;;;;;;;21.77;16.17;;;16.40;99.90;;;;;;5153559;27;20082;-72
2023/03/18 11:25:01;;;;;;;18.83;14.63;;;16.30;99.90;;;;;;5134966;27;20048;-76
2023/03/18 11:27:34;;;;;;;20.63;14.85;;;16.30;99.90;;;;;;5138797;27;20438;-76
2023/03/18 11:30:10;;;;;;;21.48;16.65;;;16.20;99.90;;;;;;5157091;27;20054;-75
2023/03/18 11:32:36;;;;;;;18.83;14.77;;;16.20;99.90;;;;;;5139345;27;20049;-75
2023/03/18 11:35:07;;;;;;;20.25;16.55;;;16.20;99.90;;;;;;5156819;27;20039;-76
2023/03/18 11:37:38;;;;;;;21.35;16.30;;;16.20;99.90;;;;;;5156914;27;20039;-74
2023/03/18 11:40:26;;;;;;;23.48;16.10;;;16.20;99.90;;;;;;5157244;27;20042;-74
2023/03/18 11:43:00;;;;;;;21.30;14.68;;;16.20;99.90;;;;;;5157298;27;20121;-74
2023/03/18 11:45:33;;;;;;;20.08;13.27;;;16.20;99.90;;;;;;5157371;27;20152;-74
2023/03/18 11:48:00;;;;;;;;;;;16.30;99.90;;;;;;5157287;27;20096;-74
2023/03/18 11:50:39;;;;;;;18.40;14.65;;;16.30;99.90;;;;;;5156551;27;19919;-74
2023/03/18 11:53:16;;;;;;;19.23;13.45;;;16.60;99.90;;;;;;5156728;27;20047;-74
2023/03/18 11:55:54;;;;;;;19.35;13.30;;;16.70;99.90;;;;;;5156609;27;20047;-74
2023/03/18 11:58:55;;;;;;;15.73;13.55;;;16.80;99.90;;;;;;5156595;27;20039;-74
2023/03/18 12:01:57;;;;;;;17.20;12.98;;;16.80;99.90;;;;;;5138472;27;20082;-74
2023/03/18 12:04:38;;;;;;;18.63;12.43;;;16.80;99.90;;;;;;5157550;27;20110;-74
2023/03/18 12:07:16;;;;;;;13.18;11.77;;;16.70;99.90;;;;;;5156147;27;20399;-74
2023/03/18 12:09:55;;;;;;;18.65;12.27;;;16.70;99.90;;;;;;5156613;27;20057;-74
2023/03/18 12:12:47;;;;;;;17.27;12.43;;;16.60;99.90;;;;;;5157020;27;20089;-74
2023/03/18 12:15:37;;;;;;;17.25;11.00;;;16.60;99.90;;;;;;5156963;27;20121;-74
2023/03/18 12:18:08;;;;;;;14.85;11.50;;;16.70;99.90;;;;;;5156641;27;20066;-73
2023/03/18 12:20:46;;;;;;;14.80;12.68;;;16.70;99.90;;;;;;5156736;27;20099;-74
2023/03/18 12:23:30;;;;;;;14.05;10.63;;;16.80;99.90;;;;;;5156234;27;20050;-74
2023/03/18 12:26:09;;;;;;;13.23;10.95;;;16.80;99.90;;;;;;5156066;27;20078;-74
2023/03/18 12:28:53;;;;;;;10.57;9.07;;;16.80;99.90;;;;;;5156023;27;20054;-74
2023/03/18 12:31:21;;;;;;;11.73;9.55;;;16.80;99.90;;;;;;5156667;27;20046;-74
2023/03/18 12:33:53;;;;;;;10.45;8.98;;;16.80;99.90;;;;;;5155986;27;20082;-74
2023/03/18 12:36:37;;;;;;;9.52;8.25;;;16.80;99.90;;;;;;5137064;27;20139;-74
2023/03/18 12:39:28;;;;;;;12.80;9.18;;;16.80;99.90;;;;;;5155833;27;20133;-74
2023/03/18 12:42:13;;;;;;;9.30;8.18;;;16.80;99.90;;;;;;5155759;27;20043;-74